sensor_id;sensor_type;location;lat;lon;timestamp;P1;durP1;ratioP1;P2;durP2;ratioP2
10110;SDS011;5095;49.796;9.934;2022-08-20T00:01:03;5.33;;;3.90;;
10110;SDS011;5095;49.796;9.934;2022-08-20T00:03:32;6.40;;;3.33;;
10110;SDS011;5095;49.796;9.934;2022-08-20T00:06:12;5.63;;;3.60;;
10110;SDS011;5095;49.796;9.934;2022-08-20T00:08:39;7.30;;;3.87;;
10110;SDS011;5095;49.796;9.934;2022-08-20T00:11:07;5.73;;;3.40;;
10110;SDS011;5095;49.796;9.934;2022-08-20T00:13:35;5.90;;;3.37;;
10110;SDS011;5095;49.796;9.934;2022-08-20T00:16:02;5.27;;;3.60;;
10110;SDS011;5095;49.796;9.934;2022-08-20T00:18:28;5.33;;;3.30;;
10110;SDS011;5095;49.796;9.934;2022-08-20T00:20:55;4.87;;;3.70;;
10110;SDS011;5095;49.796;9.934;2022-08-20T00:23:22;6.50;;;3.50;;
10110;SDS011;5095;49.796;9.934;2022-08-20T00:25:49;6.60;;;3.47;;
10110;SDS011;5095;49.796;9.934;2022-08-20T00:28:15;4.97;;;3.53;;
10110;SDS011;5095;49.796;9.934;2022-08-20T00:30:42;4.37;;;3.30;;
10110;SDS011;5095;49.796;9.934;2022-08-20T00:33:11;4.50;;;3.10;;
10110;SDS011;5095;49.796;9.934;2022-08-20T00:35:39;4.13;;;3.10;;
10110;SDS011;5095;49.796;9.934;2022-08-20T00:38:05;3.57;;;3.27;;
10110;SDS011;5095;49.796;9.934;2022-08-20T00:40:37;7.47;;;3.57;;
10110;SDS011;5095;49.796;9.934;2022-08-20T00:43:05;5.43;;;3.30;;
10110;SDS011;5095;49.796;9.934;2022-08-20T00:45:32;4.83;;;3.60;;
10110;SDS011;5095;49.796;9.934;2022-08-20T00:48:02;5.10;;;3.10;;
10110;SDS011;5095;49.796;9.934;2022-08-20T00:50:33;4.80;;;3.60;;
10110;SDS011;5095;49.796;9.934;2022-08-20T00:52:59;4.40;;;3.50;;
10110;SDS011;5095;49.796;9.934;2022-08-20T00:55:27;4.73;;;3.00;;
10110;SDS011;5095;49.796;9.934;2022-08-20T00:57:55;4.40;;;3.50;;
10110;SDS011;5095;49.796;9.934;2022-08-20T01:00:24;5.30;;;3.50;;
10110;SDS011;5095;49.796;9.934;2022-08-20T01:02:51;4.50;;;3.77;;
10110;SDS011;5095;49.796;9.934;2022-08-20T01:05:17;4.53;;;3.40;;
10110;SDS011;5095;49.796;9.934;2022-08-20T01:07:44;7.43;;;3.93;;
10110;SDS011;5095;49.796;9.934;2022-08-20T01:10:13;5.37;;;3.57;;
10110;SDS011;5095;49.796;9.934;2022-08-20T01:12:41;5.17;;;3.93;;
10110;SDS011;5095;49.796;9.934;2022-08-20T01:15:10;4.73;;;3.43;;
10110;SDS011;5095;49.796;9.934;2022-08-20T01:17:40;5.53;;;3.43;;
10110;SDS011;5095;49.796;9.934;2022-08-20T01:20:11;5.37;;;3.40;;
10110;SDS011;5095;49.796;9.934;2022-08-20T01:22:44;4.67;;;3.67;;
10110;SDS011;5095;49.796;9.934;2022-08-20T01:28:15;6.13;;;3.90;;
10110;SDS011;5095;49.796;9.934;2022-08-20T01:30:42;5.07;;;3.83;;
10110;SDS011;5095;49.796;9.934;2022-08-20T01:33:08;4.53;;;3.77;;
10110;SDS011;5095;49.796;9.934;2022-08-20T01:35:38;5.67;;;3.70;;
10110;SDS011;5095;49.796;9.934;2022-08-20T01:38:05;4.70;;;3.70;;
10110;SDS011;5095;49.796;9.934;2022-08-20T01:43:08;5.50;;;3.40;;
10110;SDS011;5095;49.796;9.934;2022-08-20T01:45:34;7.73;;;4.27;;
10110;SDS011;5095;49.796;9.934;2022-08-20T01:48:00;4.13;;;3.70;;
10110;SDS011;5095;49.796;9.934;2022-08-20T01:50:27;5.37;;;4.00;;
10110;SDS011;5095;49.796;9.934;2022-08-20T01:53:01;4.70;;;3.80;;
10110;SDS011;5095;49.796;9.934;2022-08-20T01:55:29;5.27;;;4.00;;
10110;SDS011;5095;49.796;9.934;2022-08-20T01:57:55;5.77;;;4.07;;
10110;SDS011;5095;49.796;9.934;2022-08-20T02:00:22;7.47;;;4.80;;
10110;SDS011;5095;49.796;9.934;2022-08-20T02:02:49;5.33;;;4.40;;
10110;SDS011;5095;49.796;9.934;2022-08-20T02:05:16;5.17;;;3.83;;
10110;SDS011;5095;49.796;9.934;2022-08-20T02:07:42;5.30;;;4.50;;
10110;SDS011;5095;49.796;9.934;2022-08-20T02:10:09;7.57;;;4.50;;
10110;SDS011;5095;49.796;9.934;2022-08-20T02:12:35;5.37;;;4.00;;
10110;SDS011;5095;49.796;9.934;2022-08-20T02:15:04;5.43;;;4.30;;
10110;SDS011;5095;49.796;9.934;2022-08-20T02:17:31;5.17;;;4.37;;
10110;SDS011;5095;49.796;9.934;2022-08-20T02:19:58;4.93;;;4.13;;
10110;SDS011;5095;49.796;9.934;2022-08-20T02:22:26;5.90;;;4.20;;
10110;SDS011;5095;49.796;9.934;2022-08-20T02:24:54;5.47;;;4.33;;
10110;SDS011;5095;49.796;9.934;2022-08-20T02:27:20;6.53;;;4.70;;
10110;SDS011;5095;49.796;9.934;2022-08-20T02:29:48;5.87;;;4.40;;
10110;SDS011;5095;49.796;9.934;2022-08-20T02:32:15;5.37;;;4.10;;
10110;SDS011;5095;49.796;9.934;2022-08-20T02:34:41;6.20;;;4.83;;
10110;SDS011;5095;49.796;9.934;2022-08-20T02:37:07;7.10;;;4.83;;
10110;SDS011;5095;49.796;9.934;2022-08-20T02:39:33;6.13;;;4.50;;
10110;SDS011;5095;49.796;9.934;2022-08-20T02:41:59;5.83;;;4.80;;
10110;SDS011;5095;49.796;9.934;2022-08-20T02:44:29;7.77;;;4.93;;
10110;SDS011;5095;49.796;9.934;2022-08-20T02:46:55;6.00;;;4.67;;
10110;SDS011;5095;49.796;9.934;2022-08-20T02:49:22;6.80;;;4.60;;
10110;SDS011;5095;49.796;9.934;2022-08-20T02:51:48;6.77;;;4.90;;
10110;SDS011;5095;49.796;9.934;2022-08-20T02:54:14;9.67;;;5.13;;
10110;SDS011;5095;49.796;9.934;2022-08-20T02:56:41;5.37;;;4.87;;
10110;SDS011;5095;49.796;9.934;2022-08-20T02:59:07;7.10;;;5.47;;
10110;SDS011;5095;49.796;9.934;2022-08-20T03:01:33;7.30;;;5.13;;
10110;SDS011;5095;49.796;9.934;2022-08-20T03:04:00;9.37;;;5.00;;
10110;SDS011;5095;49.796;9.934;2022-08-20T03:06:27;8.47;;;5.00;;
10110;SDS011;5095;49.796;9.934;2022-08-20T03:08:54;6.03;;;4.90;;
10110;SDS011;5095;49.796;9.934;2022-08-20T03:11:20;5.83;;;4.87;;
10110;SDS011;5095;49.796;9.934;2022-08-20T03:13:46;7.10;;;4.50;;
10110;SDS011;5095;49.796;9.934;2022-08-20T03:16:12;6.70;;;4.63;;
10110;SDS011;5095;49.796;9.934;2022-08-20T03:18:39;7.20;;;4.80;;
10110;SDS011;5095;49.796;9.934;2022-08-20T03:21:06;6.60;;;4.77;;
10110;SDS011;5095;49.796;9.934;2022-08-20T03:23:32;6.07;;;4.77;;
10110;SDS011;5095;49.796;9.934;2022-08-20T03:25:58;6.83;;;4.83;;
10110;SDS011;5095;49.796;9.934;2022-08-20T03:28:25;5.73;;;5.07;;
10110;SDS011;5095;49.796;9.934;2022-08-20T03:30:51;8.30;;;5.10;;
10110;SDS011;5095;49.796;9.934;2022-08-20T03:33:18;8.53;;;5.27;;
10110;SDS011;5095;49.796;9.934;2022-08-20T03:35:44;6.43;;;4.70;;
10110;SDS011;5095;49.796;9.934;2022-08-20T03:38:11;7.23;;;4.87;;
10110;SDS011;5095;49.796;9.934;2022-08-20T03:40:38;7.23;;;5.13;;
10110;SDS011;5095;49.796;9.934;2022-08-20T03:43:05;8.27;;;4.73;;
10110;SDS011;5095;49.796;9.934;2022-08-20T03:45:36;6.07;;;5.10;;
10110;SDS011;5095;49.796;9.934;2022-08-20T03:48:03;6.43;;;4.63;;
10110;SDS011;5095;49.796;9.934;2022-08-20T03:50:31;7.03;;;4.90;;
10110;SDS011;5095;49.796;9.934;2022-08-20T03:52:57;9.07;;;5.30;;
10110;SDS011;5095;49.796;9.934;2022-08-20T03:55:24;8.00;;;5.27;;
10110;SDS011;5095;49.796;9.934;2022-08-20T03:57:51;5.93;;;4.97;;
10110;SDS011;5095;49.796;9.934;2022-08-20T04:00:19;5.87;;;4.40;;
10110;SDS011;5095;49.796;9.934;2022-08-20T04:02:45;5.30;;;4.50;;
10110;SDS011;5095;49.796;9.934;2022-08-20T04:05:12;5.43;;;4.30;;
10110;SDS011;5095;49.796;9.934;2022-08-20T04:07:38;13.80;;;5.43;;
10110;SDS011;5095;49.796;9.934;2022-08-20T04:10:05;7.37;;;5.07;;
10110;SDS011;5095;49.796;9.934;2022-08-20T04:12:33;7.10;;;4.77;;
10110;SDS011;5095;49.796;9.934;2022-08-20T04:15:00;6.53;;;4.57;;
10110;SDS011;5095;49.796;9.934;2022-08-20T04:17:26;5.57;;;4.40;;
10110;SDS011;5095;49.796;9.934;2022-08-20T04:19:52;6.63;;;4.60;;
10110;SDS011;5095;49.796;9.934;2022-08-20T04:22:18;8.00;;;4.60;;
10110;SDS011;5095;49.796;9.934;2022-08-20T04:24:44;7.13;;;4.77;;
10110;SDS011;5095;49.796;9.934;2022-08-20T04:27:10;7.97;;;4.60;;
10110;SDS011;5095;49.796;9.934;2022-08-20T04:29:39;6.13;;;4.40;;
10110;SDS011;5095;49.796;9.934;2022-08-20T04:32:07;8.17;;;4.73;;
10110;SDS011;5095;49.796;9.934;2022-08-20T04:34:33;5.47;;;4.30;;
10110;SDS011;5095;49.796;9.934;2022-08-20T04:37:00;6.30;;;4.30;;
10110;SDS011;5095;49.796;9.934;2022-08-20T04:39:26;8.03;;;4.93;;
10110;SDS011;5095;49.796;9.934;2022-08-20T04:41:52;6.10;;;4.47;;
10110;SDS011;5095;49.796;9.934;2022-08-20T04:44:18;8.30;;;4.70;;
10110;SDS011;5095;49.796;9.934;2022-08-20T04:46:45;8.47;;;4.77;;
10110;SDS011;5095;49.796;9.934;2022-08-20T04:49:11;6.93;;;4.80;;
10110;SDS011;5095;49.796;9.934;2022-08-20T04:51:37;7.30;;;4.37;;
10110;SDS011;5095;49.796;9.934;2022-08-20T04:54:03;8.33;;;4.47;;
10110;SDS011;5095;49.796;9.934;2022-08-20T04:56:31;6.33;;;4.60;;
10110;SDS011;5095;49.796;9.934;2022-08-20T04:58:59;8.70;;;5.83;;
10110;SDS011;5095;49.796;9.934;2022-08-20T05:01:26;8.10;;;4.60;;
10110;SDS011;5095;49.796;9.934;2022-08-20T05:03:52;8.27;;;4.50;;
10110;SDS011;5095;49.796;9.934;2022-08-20T05:06:19;6.17;;;4.27;;
10110;SDS011;5095;49.796;9.934;2022-08-20T05:08:46;5.63;;;4.47;;
10110;SDS011;5095;49.796;9.934;2022-08-20T05:11:12;6.80;;;4.67;;
10110;SDS011;5095;49.796;9.934;2022-08-20T05:13:39;6.60;;;4.63;;
10110;SDS011;5095;49.796;9.934;2022-08-20T05:16:07;6.10;;;4.60;;
10110;SDS011;5095;49.796;9.934;2022-08-20T05:18:33;6.50;;;4.80;;
10110;SDS011;5095;49.796;9.934;2022-08-20T05:21:00;5.33;;;4.60;;
10110;SDS011;5095;49.796;9.934;2022-08-20T05:23:33;7.30;;;4.47;;
10110;SDS011;5095;49.796;9.934;2022-08-20T05:25:59;5.43;;;4.57;;
10110;SDS011;5095;49.796;9.934;2022-08-20T05:28:29;6.67;;;4.80;;
10110;SDS011;5095;49.796;9.934;2022-08-20T05:30:57;7.47;;;4.60;;
10110;SDS011;5095;49.796;9.934;2022-08-20T05:33:23;9.17;;;4.97;;
10110;SDS011;5095;49.796;9.934;2022-08-20T05:35:50;7.67;;;4.60;;
10110;SDS011;5095;49.796;9.934;2022-08-20T05:38:17;6.77;;;4.80;;
10110;SDS011;5095;49.796;9.934;2022-08-20T05:40:43;6.03;;;4.57;;
10110;SDS011;5095;49.796;9.934;2022-08-20T05:43:10;7.10;;;4.83;;
10110;SDS011;5095;49.796;9.934;2022-08-20T05:45:37;7.40;;;4.97;;
10110;SDS011;5095;49.796;9.934;2022-08-20T05:48:06;7.30;;;5.10;;
10110;SDS011;5095;49.796;9.934;2022-08-20T05:50:34;6.30;;;4.20;;
10110;SDS011;5095;49.796;9.934;2022-08-20T05:53:00;6.13;;;4.73;;
10110;SDS011;5095;49.796;9.934;2022-08-20T05:55:27;5.93;;;4.20;;
10110;SDS011;5095;49.796;9.934;2022-08-20T05:58:00;6.03;;;4.70;;
10110;SDS011;5095;49.796;9.934;2022-08-20T06:00:27;5.57;;;4.60;;
10110;SDS011;5095;49.796;9.934;2022-08-20T06:02:54;5.97;;;4.57;;
10110;SDS011;5095;49.796;9.934;2022-08-20T06:05:38;6.10;;;4.60;;
10110;SDS011;5095;49.796;9.934;2022-08-20T06:08:05;7.10;;;4.80;;
10110;SDS011;5095;49.796;9.934;2022-08-20T06:10:31;9.20;;;4.47;;
10110;SDS011;5095;49.796;9.934;2022-08-20T06:12:57;5.40;;;4.33;;
10110;SDS011;5095;49.796;9.934;2022-08-20T06:15:23;5.70;;;4.27;;
10110;SDS011;5095;49.796;9.934;2022-08-20T06:17:49;6.77;;;4.90;;
10110;SDS011;5095;49.796;9.934;2022-08-20T06:20:16;8.77;;;4.80;;
10110;SDS011;5095;49.796;9.934;2022-08-20T06:22:42;7.13;;;4.63;;
10110;SDS011;5095;49.796;9.934;2022-08-20T06:25:09;5.77;;;4.60;;
10110;SDS011;5095;49.796;9.934;2022-08-20T06:27:38;6.77;;;4.57;;
10110;SDS011;5095;49.796;9.934;2022-08-20T06:30:05;7.73;;;4.90;;
10110;SDS011;5095;49.796;9.934;2022-08-20T06:32:32;7.13;;;5.10;;
10110;SDS011;5095;49.796;9.934;2022-08-20T06:35:02;7.90;;;4.57;;
10110;SDS011;5095;49.796;9.934;2022-08-20T06:37:29;7.00;;;4.40;;
10110;SDS011;5095;49.796;9.934;2022-08-20T06:39:58;7.93;;;4.50;;
10110;SDS011;5095;49.796;9.934;2022-08-20T06:42:24;6.53;;;4.23;;
10110;SDS011;5095;49.796;9.934;2022-08-20T06:44:50;5.30;;;4.60;;
10110;SDS011;5095;49.796;9.934;2022-08-20T06:47:17;13.37;;;5.20;;
10110;SDS011;5095;49.796;9.934;2022-08-20T06:49:44;15.20;;;5.93;;
10110;SDS011;5095;49.796;9.934;2022-08-20T06:52:11;5.77;;;4.30;;
10110;SDS011;5095;49.796;9.934;2022-08-20T06:54:38;8.33;;;4.57;;
10110;SDS011;5095;49.796;9.934;2022-08-20T06:57:04;6.07;;;4.37;;
10110;SDS011;5095;49.796;9.934;2022-08-20T06:59:30;6.87;;;4.50;;
10110;SDS011;5095;49.796;9.934;2022-08-20T07:01:56;6.07;;;4.53;;
10110;SDS011;5095;49.796;9.934;2022-08-20T07:04:23;6.53;;;4.53;;
10110;SDS011;5095;49.796;9.934;2022-08-20T07:06:50;5.83;;;4.20;;
10110;SDS011;5095;49.796;9.934;2022-08-20T07:09:17;6.00;;;4.33;;
10110;SDS011;5095;49.796;9.934;2022-08-20T07:11:43;5.60;;;4.50;;
10110;SDS011;5095;49.796;9.934;2022-08-20T07:14:09;7.67;;;4.43;;
10110;SDS011;5095;49.796;9.934;2022-08-20T07:16:36;5.93;;;4.20;;
10110;SDS011;5095;49.796;9.934;2022-08-20T07:19:02;6.50;;;4.40;;
10110;SDS011;5095;49.796;9.934;2022-08-20T07:21:28;7.20;;;5.23;;
10110;SDS011;5095;49.796;9.934;2022-08-20T07:23:54;9.90;;;4.73;;
10110;SDS011;5095;49.796;9.934;2022-08-20T07:26:21;7.60;;;4.87;;
10110;SDS011;5095;49.796;9.934;2022-08-20T07:28:47;6.10;;;5.17;;
10110;SDS011;5095;49.796;9.934;2022-08-20T07:31:13;7.73;;;5.13;;
10110;SDS011;5095;49.796;9.934;2022-08-20T07:33:58;6.87;;;4.33;;
10110;SDS011;5095;49.796;9.934;2022-08-20T07:36:24;7.67;;;4.80;;
10110;SDS011;5095;49.796;9.934;2022-08-20T07:38:51;7.87;;;4.70;;
10110;SDS011;5095;49.796;9.934;2022-08-20T07:41:18;7.07;;;4.60;;
10110;SDS011;5095;49.796;9.934;2022-08-20T07:43:44;9.03;;;5.27;;
10110;SDS011;5095;49.796;9.934;2022-08-20T07:46:11;7.20;;;4.57;;
10110;SDS011;5095;49.796;9.934;2022-08-20T07:48:38;7.57;;;5.20;;
10110;SDS011;5095;49.796;9.934;2022-08-20T07:51:06;6.87;;;4.50;;
10110;SDS011;5095;49.796;9.934;2022-08-20T07:53:33;5.87;;;4.33;;
10110;SDS011;5095;49.796;9.934;2022-08-20T07:55:59;6.13;;;5.10;;
10110;SDS011;5095;49.796;9.934;2022-08-20T07:58:27;7.93;;;4.43;;
10110;SDS011;5095;49.796;9.934;2022-08-20T08:00:54;8.60;;;4.57;;
10110;SDS011;5095;49.796;9.934;2022-08-20T08:03:20;9.20;;;4.83;;
10110;SDS011;5095;49.796;9.934;2022-08-20T08:05:47;6.43;;;4.50;;
10110;SDS011;5095;49.796;9.934;2022-08-20T08:08:16;6.43;;;4.63;;
10110;SDS011;5095;49.796;9.934;2022-08-20T08:10:44;5.40;;;4.20;;
10110;SDS011;5095;49.796;9.934;2022-08-20T08:13:11;7.17;;;4.83;;
10110;SDS011;5095;49.796;9.934;2022-08-20T08:15:38;6.73;;;4.80;;
10110;SDS011;5095;49.796;9.934;2022-08-20T08:18:10;7.63;;;4.50;;
10110;SDS011;5095;49.796;9.934;2022-08-20T08:20:40;8.13;;;4.67;;
10110;SDS011;5095;49.796;9.934;2022-08-20T08:23:07;6.37;;;4.43;;
10110;SDS011;5095;49.796;9.934;2022-08-20T08:25:36;6.07;;;4.90;;
10110;SDS011;5095;49.796;9.934;2022-08-20T08:28:03;8.10;;;4.90;;
10110;SDS011;5095;49.796;9.934;2022-08-20T08:30:29;5.17;;;4.67;;
10110;SDS011;5095;49.796;9.934;2022-08-20T08:32:56;5.20;;;4.70;;
10110;SDS011;5095;49.796;9.934;2022-08-20T08:35:41;10.50;;;5.90;;
10110;SDS011;5095;49.796;9.934;2022-08-20T08:38:10;9.87;;;5.50;;
10110;SDS011;5095;49.796;9.934;2022-08-20T08:40:37;8.47;;;6.20;;
10110;SDS011;5095;49.796;9.934;2022-08-20T08:43:04;7.27;;;5.67;;
10110;SDS011;5095;49.796;9.934;2022-08-20T08:45:35;8.37;;;6.07;;
10110;SDS011;5095;49.796;9.934;2022-08-20T08:48:08;6.90;;;6.10;;
10110;SDS011;5095;49.796;9.934;2022-08-20T08:50:35;9.87;;;6.40;;
10110;SDS011;5095;49.796;9.934;2022-08-20T08:53:02;8.60;;;6.10;;
10110;SDS011;5095;49.796;9.934;2022-08-20T08:55:29;10.73;;;5.47;;
10110;SDS011;5095;49.796;9.934;2022-08-20T08:57:57;7.27;;;5.77;;
10110;SDS011;5095;49.796;9.934;2022-08-20T09:00:24;18.77;;;10.37;;
10110;SDS011;5095;49.796;9.934;2022-08-20T09:02:58;11.03;;;8.83;;
10110;SDS011;5095;49.796;9.934;2022-08-20T09:05:30;9.90;;;7.17;;
10110;SDS011;5095;49.796;9.934;2022-08-20T09:07:59;9.83;;;7.30;;
10110;SDS011;5095;49.796;9.934;2022-08-20T09:10:27;10.17;;;7.50;;
10110;SDS011;5095;49.796;9.934;2022-08-20T09:12:53;11.23;;;7.70;;
10110;SDS011;5095;49.796;9.934;2022-08-20T09:15:19;10.23;;;7.70;;
10110;SDS011;5095;49.796;9.934;2022-08-20T09:17:45;10.15;;;8.90;;
10110;SDS011;5095;49.796;9.934;2022-08-20T09:20:11;8.68;;;6.78;;
10110;SDS011;5095;49.796;9.934;2022-08-20T09:22:37;17.37;;;13.47;;
10110;SDS011;5095;49.796;9.934;2022-08-20T09:25:05;7.80;;;6.65;;
10110;SDS011;5095;49.796;9.934;2022-08-20T09:27:32;7.27;;;6.47;;
10110;SDS011;5095;49.796;9.934;2022-08-20T09:29:58;9.60;;;6.30;;
10110;SDS011;5095;49.796;9.934;2022-08-20T09:32:24;9.10;;;5.78;;
10110;SDS011;5095;49.796;9.934;2022-08-20T09:34:51;16.77;;;6.07;;
10110;SDS011;5095;49.796;9.934;2022-08-20T09:37:22;11.05;;;5.47;;
10110;SDS011;5095;49.796;9.934;2022-08-20T09:39:49;6.13;;;5.43;;
10110;SDS011;5095;49.796;9.934;2022-08-20T09:42:16;7.10;;;5.63;;
10110;SDS011;5095;49.796;9.934;2022-08-20T09:44:43;7.30;;;5.40;;
10110;SDS011;5095;49.796;9.934;2022-08-20T09:47:09;5.85;;;4.95;;
10110;SDS011;5095;49.796;9.934;2022-08-20T09:49:35;5.88;;;5.00;;
10110;SDS011;5095;49.796;9.934;2022-08-20T09:52:02;6.63;;;5.30;;
10110;SDS011;5095;49.796;9.934;2022-08-20T09:54:29;7.97;;;5.17;;
10110;SDS011;5095;49.796;9.934;2022-08-20T09:56:57;7.68;;;5.25;;
10110;SDS011;5095;49.796;9.934;2022-08-20T09:59:24;8.15;;;5.82;;
10110;SDS011;5095;49.796;9.934;2022-08-20T10:01:50;8.85;;;5.53;;
10110;SDS011;5095;49.796;9.934;2022-08-20T10:04:16;6.68;;;5.50;;
10110;SDS011;5095;49.796;9.934;2022-08-20T10:06:42;7.78;;;5.38;;
10110;SDS011;5095;49.796;9.934;2022-08-20T10:09:09;6.85;;;5.15;;
10110;SDS011;5095;49.796;9.934;2022-08-20T10:11:35;5.63;;;5.03;;
10110;SDS011;5095;49.796;9.934;2022-08-20T10:14:02;9.98;;;8.07;;
10110;SDS011;5095;49.796;9.934;2022-08-20T10:16:28;8.33;;;5.27;;
10110;SDS011;5095;49.796;9.934;2022-08-20T10:18:54;5.57;;;4.88;;
10110;SDS011;5095;49.796;9.934;2022-08-20T10:21:20;6.07;;;5.20;;
10110;SDS011;5095;49.796;9.934;2022-08-20T10:23:46;8.23;;;5.20;;
10110;SDS011;5095;49.796;9.934;2022-08-20T10:26:12;5.83;;;4.57;;
10110;SDS011;5095;49.796;9.934;2022-08-20T10:28:39;7.00;;;4.80;;
10110;SDS011;5095;49.796;9.934;2022-08-20T10:31:05;6.78;;;5.10;;
10110;SDS011;5095;49.796;9.934;2022-08-20T10:33:32;7.93;;;5.05;;
10110;SDS011;5095;49.796;9.934;2022-08-20T10:36:04;5.90;;;4.60;;
10110;SDS011;5095;49.796;9.934;2022-08-20T10:38:30;6.18;;;4.82;;
10110;SDS011;5095;49.796;9.934;2022-08-20T10:40:56;6.47;;;4.28;;
10110;SDS011;5095;49.796;9.934;2022-08-20T10:43:22;5.35;;;4.20;;
10110;SDS011;5095;49.796;9.934;2022-08-20T10:45:49;5.72;;;3.83;;
10110;SDS011;5095;49.796;9.934;2022-08-20T10:48:15;3.90;;;3.50;;
10110;SDS011;5095;49.796;9.934;2022-08-20T10:50:41;4.88;;;3.30;;
10110;SDS011;5095;49.796;9.934;2022-08-20T10:53:07;4.35;;;3.30;;
10110;SDS011;5095;49.796;9.934;2022-08-20T10:55:33;3.05;;;2.75;;
10110;SDS011;5095;49.796;9.934;2022-08-20T10:57:59;3.55;;;3.25;;
10110;SDS011;5095;49.796;9.934;2022-08-20T11:00:26;4.40;;;3.90;;
10110;SDS011;5095;49.796;9.934;2022-08-20T11:02:52;4.22;;;3.60;;
10110;SDS011;5095;49.796;9.934;2022-08-20T11:05:18;4.65;;;3.90;;
10110;SDS011;5095;49.796;9.934;2022-08-20T11:07:44;4.65;;;3.80;;
10110;SDS011;5095;49.796;9.934;2022-08-20T11:10:11;3.87;;;3.47;;
10110;SDS011;5095;49.796;9.934;2022-08-20T11:12:37;5.15;;;3.72;;
10110;SDS011;5095;49.796;9.934;2022-08-20T11:15:03;4.30;;;3.50;;
10110;SDS011;5095;49.796;9.934;2022-08-20T11:17:31;3.85;;;3.45;;
10110;SDS011;5095;49.796;9.934;2022-08-20T11:19:58;4.40;;;4.00;;
10110;SDS011;5095;49.796;9.934;2022-08-20T11:22:24;4.50;;;3.63;;
10110;SDS011;5095;49.796;9.934;2022-08-20T11:24:50;6.68;;;3.42;;
10110;SDS011;5095;49.796;9.934;2022-08-20T11:27:19;4.85;;;3.60;;
10110;SDS011;5095;49.796;9.934;2022-08-20T11:29:46;4.00;;;3.55;;
10110;SDS011;5095;49.796;9.934;2022-08-20T11:32:12;4.78;;;3.55;;
10110;SDS011;5095;49.796;9.934;2022-08-20T11:34:38;5.80;;;3.70;;
10110;SDS011;5095;49.796;9.934;2022-08-20T11:37:04;3.10;;;2.67;;
10110;SDS011;5095;49.796;9.934;2022-08-20T11:39:30;5.05;;;2.97;;
10110;SDS011;5095;49.796;9.934;2022-08-20T11:41:56;32.30;;;5.68;;
10110;SDS011;5095;49.796;9.934;2022-08-20T11:44:23;6.20;;;4.32;;
10110;SDS011;5095;49.796;9.934;2022-08-20T11:46:49;8.15;;;4.35;;
10110;SDS011;5095;49.796;9.934;2022-08-20T11:49:15;19.40;;;6.05;;
10110;SDS011;5095;49.796;9.934;2022-08-20T11:51:41;25.95;;;8.23;;
10110;SDS011;5095;49.796;9.934;2022-08-20T11:54:07;8.02;;;4.97;;
10110;SDS011;5095;49.796;9.934;2022-08-20T11:56:33;10.57;;;5.10;;
10110;SDS011;5095;49.796;9.934;2022-08-20T11:58:59;6.07;;;4.63;;
10110;SDS011;5095;49.796;9.934;2022-08-20T12:01:25;7.57;;;5.85;;
10110;SDS011;5095;49.796;9.934;2022-08-20T12:03:51;44.47;;;12.20;;
10110;SDS011;5095;49.796;9.934;2022-08-20T12:06:17;11.15;;;6.95;;
10110;SDS011;5095;49.796;9.934;2022-08-20T12:08:43;11.97;;;7.03;;
10110;SDS011;5095;49.796;9.934;2022-08-20T12:11:09;14.80;;;7.20;;
10110;SDS011;5095;49.796;9.934;2022-08-20T12:13:36;9.00;;;7.10;;
10110;SDS011;5095;49.796;9.934;2022-08-20T12:16:02;8.93;;;6.40;;
10110;SDS011;5095;49.796;9.934;2022-08-20T12:18:29;9.10;;;6.57;;
10110;SDS011;5095;49.796;9.934;2022-08-20T12:20:55;8.63;;;6.20;;
10110;SDS011;5095;49.796;9.934;2022-08-20T12:23:22;10.23;;;7.07;;
10110;SDS011;5095;49.796;9.934;2022-08-20T12:25:48;8.50;;;6.27;;
10110;SDS011;5095;49.796;9.934;2022-08-20T12:28:14;9.33;;;7.10;;
10110;SDS011;5095;49.796;9.934;2022-08-20T12:30:40;11.63;;;7.97;;
10110;SDS011;5095;49.796;9.934;2022-08-20T12:33:07;10.17;;;7.47;;
10110;SDS011;5095;49.796;9.934;2022-08-20T12:35:34;11.53;;;8.73;;
10110;SDS011;5095;49.796;9.934;2022-08-20T12:38:03;11.47;;;7.10;;
10110;SDS011;5095;49.796;9.934;2022-08-20T12:40:30;9.53;;;6.63;;
10110;SDS011;5095;49.796;9.934;2022-08-20T12:42:56;8.83;;;7.00;;
10110;SDS011;5095;49.796;9.934;2022-08-20T12:45:22;8.40;;;7.13;;
10110;SDS011;5095;49.796;9.934;2022-08-20T12:47:48;10.57;;;7.73;;
10110;SDS011;5095;49.796;9.934;2022-08-20T12:50:16;9.73;;;7.03;;
10110;SDS011;5095;49.796;9.934;2022-08-20T12:52:43;11.63;;;7.10;;
10110;SDS011;5095;49.796;9.934;2022-08-20T12:55:13;8.87;;;7.17;;
10110;SDS011;5095;49.796;9.934;2022-08-20T12:57:40;10.50;;;7.73;;
10110;SDS011;5095;49.796;9.934;2022-08-20T13:00:12;10.30;;;7.93;;
10110;SDS011;5095;49.796;9.934;2022-08-20T13:02:38;8.87;;;6.97;;
10110;SDS011;5095;49.796;9.934;2022-08-20T13:05:05;8.83;;;7.27;;
10110;SDS011;5095;49.796;9.934;2022-08-20T13:07:31;12.00;;;7.23;;
10110;SDS011;5095;49.796;9.934;2022-08-20T13:09:58;11.50;;;7.80;;
10110;SDS011;5095;49.796;9.934;2022-08-20T13:12:24;8.63;;;6.83;;
10110;SDS011;5095;49.796;9.934;2022-08-20T13:14:50;9.43;;;7.30;;
10110;SDS011;5095;49.796;9.934;2022-08-20T13:17:17;9.13;;;7.53;;
10110;SDS011;5095;49.796;9.934;2022-08-20T13:19:43;9.53;;;7.20;;
10110;SDS011;5095;49.796;9.934;2022-08-20T13:22:10;10.13;;;7.10;;
10110;SDS011;5095;49.796;9.934;2022-08-20T13:24:36;9.47;;;8.10;;
10110;SDS011;5095;49.796;9.934;2022-08-20T13:27:07;7.67;;;6.93;;
10110;SDS011;5095;49.796;9.934;2022-08-20T13:29:34;11.30;;;7.20;;
10110;SDS011;5095;49.796;9.934;2022-08-20T13:32:00;7.40;;;6.13;;
10110;SDS011;5095;49.796;9.934;2022-08-20T13:34:26;6.20;;;5.00;;
10110;SDS011;5095;49.796;9.934;2022-08-20T13:36:52;5.60;;;4.13;;
10110;SDS011;5095;49.796;9.934;2022-08-20T13:39:20;5.03;;;3.47;;
10110;SDS011;5095;49.796;9.934;2022-08-20T13:41:46;3.40;;;3.10;;
10110;SDS011;5095;49.796;9.934;2022-08-20T13:44:12;4.20;;;3.70;;
10110;SDS011;5095;49.796;9.934;2022-08-20T13:46:38;2.90;;;2.67;;
10110;SDS011;5095;49.796;9.934;2022-08-20T13:49:04;4.00;;;3.23;;
10110;SDS011;5095;49.796;9.934;2022-08-20T13:51:30;3.55;;;2.95;;
10110;SDS011;5095;49.796;9.934;2022-08-20T13:53:56;4.63;;;2.70;;
10110;SDS011;5095;49.796;9.934;2022-08-20T13:56:22;5.13;;;3.97;;
10110;SDS011;5095;49.796;9.934;2022-08-20T13:58:49;2.90;;;2.60;;
10110;SDS011;5095;49.796;9.934;2022-08-20T14:01:15;3.28;;;2.90;;
10110;SDS011;5095;49.796;9.934;2022-08-20T14:03:41;3.60;;;2.90;;
10110;SDS011;5095;49.796;9.934;2022-08-20T14:06:07;4.90;;;3.97;;
10110;SDS011;5095;49.796;9.934;2022-08-20T14:08:34;4.63;;;3.88;;
10110;SDS011;5095;49.796;9.934;2022-08-20T14:11:00;4.82;;;3.83;;
10110;SDS011;5095;49.796;9.934;2022-08-20T14:13:26;5.72;;;4.30;;
10110;SDS011;5095;49.796;9.934;2022-08-20T14:15:53;4.03;;;3.63;;
10110;SDS011;5095;49.796;9.934;2022-08-20T14:18:20;4.32;;;3.50;;
10110;SDS011;5095;49.796;9.934;2022-08-20T14:20:46;5.25;;;3.70;;
10110;SDS011;5095;49.796;9.934;2022-08-20T14:23:13;4.70;;;3.85;;
10110;SDS011;5095;49.796;9.934;2022-08-20T14:25:39;6.40;;;3.33;;
10110;SDS011;5095;49.796;9.934;2022-08-20T14:28:13;4.72;;;3.20;;
10110;SDS011;5095;49.796;9.934;2022-08-20T14:30:39;3.20;;;2.90;;
10110;SDS011;5095;49.796;9.934;2022-08-20T14:33:05;4.15;;;3.53;;
10110;SDS011;5095;49.796;9.934;2022-08-20T14:35:31;4.50;;;3.10;;
10110;SDS011;5095;49.796;9.934;2022-08-20T14:37:57;4.60;;;3.45;;
10110;SDS011;5095;49.796;9.934;2022-08-20T14:40:24;4.55;;;2.92;;
10110;SDS011;5095;49.796;9.934;2022-08-20T14:42:50;5.38;;;2.67;;
10110;SDS011;5095;49.796;9.934;2022-08-20T14:45:17;4.45;;;3.22;;
10110;SDS011;5095;49.796;9.934;2022-08-20T14:47:44;4.00;;;3.15;;
10110;SDS011;5095;49.796;9.934;2022-08-20T14:50:13;5.88;;;3.13;;
10110;SDS011;5095;49.796;9.934;2022-08-20T14:52:39;3.97;;;2.97;;
10110;SDS011;5095;49.796;9.934;2022-08-20T14:55:07;4.18;;;2.70;;
10110;SDS011;5095;49.796;9.934;2022-08-20T14:57:33;3.75;;;2.90;;
10110;SDS011;5095;49.796;9.934;2022-08-20T14:59:59;3.90;;;2.88;;
10110;SDS011;5095;49.796;9.934;2022-08-20T15:02:25;3.45;;;3.15;;
10110;SDS011;5095;49.796;9.934;2022-08-20T15:04:52;5.55;;;3.40;;